sensor_id;sensor_type;location;lat;lon;timestamp;P1;durP1;ratioP1;P2;durP2;ratioP2
20415;SDS011;10367;52.202;5.996;2023-05-21T00:00:15;18.13;;;16.63;;
20415;SDS011;10367;52.202;5.996;2023-05-21T00:02:44;16.60;;;15.10;;
20415;SDS011;10367;52.202;5.996;2023-05-21T00:05:14;19.20;;;17.37;;
20415;SDS011;10367;52.202;5.996;2023-05-21T00:07:44;20.23;;;18.23;;
20415;SDS011;10367;52.202;5.996;2023-05-21T00:10:13;18.70;;;16.87;;
20415;SDS011;10367;52.202;5.996;2023-05-21T00:12:42;17.57;;;16.07;;
20415;SDS011;10367;52.202;5.996;2023-05-21T00:15:11;18.90;;;16.47;;
20415;SDS011;10367;52.202;5.996;2023-05-21T00:17:41;19.40;;;16.87;;
20415;SDS011;10367;52.202;5.996;2023-05-21T00:20:12;19.33;;;17.53;;
20415;SDS011;10367;52.202;5.996;2023-05-21T00:22:42;16.83;;;15.40;;
20415;SDS011;10367;52.202;5.996;2023-05-21T00:25:10;21.07;;;16.27;;
20415;SDS011;10367;52.202;5.996;2023-05-21T00:27:39;17.40;;;15.87;;
20415;SDS011;10367;52.202;5.996;2023-05-21T00:30:08;19.23;;;17.43;;
20415;SDS011;10367;52.202;5.996;2023-05-21T00:32:37;20.07;;;16.83;;
20415;SDS011;10367;52.202;5.996;2023-05-21T00:35:08;21.07;;;17.40;;
20415;SDS011;10367;52.202;5.996;2023-05-21T00:37:37;19.47;;;17.50;;
20415;SDS011;10367;52.202;5.996;2023-05-21T00:40:06;18.67;;;16.97;;
20415;SDS011;10367;52.202;5.996;2023-05-21T00:42:37;18.27;;;16.53;;
20415;SDS011;10367;52.202;5.996;2023-05-21T00:45:07;19.47;;;17.20;;
20415;SDS011;10367;52.202;5.996;2023-05-21T00:47:36;18.73;;;17.00;;
20415;SDS011;10367;52.202;5.996;2023-05-21T00:50:05;20.03;;;18.07;;
20415;SDS011;10367;52.202;5.996;2023-05-21T00:52:37;17.33;;;15.83;;
20415;SDS011;10367;52.202;5.996;2023-05-21T00:55:08;18.00;;;16.33;;
20415;SDS011;10367;52.202;5.996;2023-05-21T00:57:37;19.37;;;17.57;;
20415;SDS011;10367;52.202;5.996;2023-05-21T01:00:08;16.90;;;15.47;;
20415;SDS011;10367;52.202;5.996;2023-05-21T01:02:40;18.53;;;16.67;;
20415;SDS011;10367;52.202;5.996;2023-05-21T01:05:11;19.17;;;17.40;;
20415;SDS011;10367;52.202;5.996;2023-05-21T01:07:41;18.10;;;16.40;;
20415;SDS011;10367;52.202;5.996;2023-05-21T01:10:10;18.57;;;16.90;;
20415;SDS011;10367;52.202;5.996;2023-05-21T01:12:40;18.70;;;17.00;;
20415;SDS011;10367;52.202;5.996;2023-05-21T01:15:11;21.63;;;17.90;;
20415;SDS011;10367;52.202;5.996;2023-05-21T01:17:40;18.33;;;16.63;;
20415;SDS011;10367;52.202;5.996;2023-05-21T01:20:13;18.37;;;16.70;;
20415;SDS011;10367;52.202;5.996;2023-05-21T01:22:49;18.27;;;16.47;;
20415;SDS011;10367;52.202;5.996;2023-05-21T01:25:19;17.67;;;16.10;;
20415;SDS011;10367;52.202;5.996;2023-05-21T01:27:49;18.60;;;16.33;;
20415;SDS011;10367;52.202;5.996;2023-05-21T01:30:18;18.10;;;16.47;;
20415;SDS011;10367;52.202;5.996;2023-05-21T01:32:50;18.63;;;16.93;;
20415;SDS011;10367;52.202;5.996;2023-05-21T01:35:26;18.40;;;16.67;;
20415;SDS011;10367;52.202;5.996;2023-05-21T01:38:03;18.90;;;16.97;;
20415;SDS011;10367;52.202;5.996;2023-05-21T01:40:38;18.60;;;16.93;;
20415;SDS011;10367;52.202;5.996;2023-05-21T01:43:08;17.57;;;16.00;;
20415;SDS011;10367;52.202;5.996;2023-05-21T01:45:39;17.83;;;16.03;;
20415;SDS011;10367;52.202;5.996;2023-05-21T01:48:10;18.70;;;17.03;;
20415;SDS011;10367;52.202;5.996;2023-05-21T01:50:41;20.03;;;17.97;;
20415;SDS011;10367;52.202;5.996;2023-05-21T01:53:13;18.60;;;16.23;;
20415;SDS011;10367;52.202;5.996;2023-05-21T01:55:43;16.60;;;15.20;;
20415;SDS011;10367;52.202;5.996;2023-05-21T01:58:12;20.83;;;18.83;;
20415;SDS011;10367;52.202;5.996;2023-05-21T02:00:41;18.40;;;16.77;;
20415;SDS011;10367;52.202;5.996;2023-05-21T02:03:11;21.00;;;18.60;;
20415;SDS011;10367;52.202;5.996;2023-05-21T02:05:42;17.07;;;15.47;;
20415;SDS011;10367;52.202;5.996;2023-05-21T02:08:13;20.70;;;17.77;;
20415;SDS011;10367;52.202;5.996;2023-05-21T02:10:42;17.40;;;15.80;;
20415;SDS011;10367;52.202;5.996;2023-05-21T02:13:11;19.20;;;17.17;;
20415;SDS011;10367;52.202;5.996;2023-05-21T02:15:39;18.20;;;16.60;;
20415;SDS011;10367;52.202;5.996;2023-05-21T02:18:08;18.87;;;17.07;;
20415;SDS011;10367;52.202;5.996;2023-05-21T02:20:37;18.90;;;16.93;;
20415;SDS011;10367;52.202;5.996;2023-05-21T02:23:06;18.93;;;17.00;;
20415;SDS011;10367;52.202;5.996;2023-05-21T02:25:36;22.93;;;18.43;;
20415;SDS011;10367;52.202;5.996;2023-05-21T02:28:05;19.47;;;17.47;;
20415;SDS011;10367;52.202;5.996;2023-05-21T02:30:34;25.80;;;17.63;;
20415;SDS011;10367;52.202;5.996;2023-05-21T02:33:03;18.40;;;16.83;;
20415;SDS011;10367;52.202;5.996;2023-05-21T02:35:32;19.30;;;17.43;;
20415;SDS011;10367;52.202;5.996;2023-05-21T02:38:01;18.40;;;16.60;;
20415;SDS011;10367;52.202;5.996;2023-05-21T02:40:30;18.83;;;17.13;;
20415;SDS011;10367;52.202;5.996;2023-05-21T02:43:00;22.00;;;18.27;;
20415;SDS011;10367;52.202;5.996;2023-05-21T02:45:29;17.53;;;15.80;;
20415;SDS011;10367;52.202;5.996;2023-05-21T02:47:58;19.17;;;17.33;;
20415;SDS011;10367;52.202;5.996;2023-05-21T02:50:27;20.07;;;18.13;;
20415;SDS011;10367;52.202;5.996;2023-05-21T02:52:55;20.23;;;17.40;;
20415;SDS011;10367;52.202;5.996;2023-05-21T02:55:25;19.43;;;17.53;;
20415;SDS011;10367;52.202;5.996;2023-05-21T02:57:54;18.57;;;16.40;;
20415;SDS011;10367;52.202;5.996;2023-05-21T03:00:24;18.93;;;16.80;;
20415;SDS011;10367;52.202;5.996;2023-05-21T03:02:53;19.27;;;17.27;;
20415;SDS011;10367;52.202;5.996;2023-05-21T03:05:22;18.03;;;16.23;;
20415;SDS011;10367;52.202;5.996;2023-05-21T03:07:51;18.07;;;16.33;;
20415;SDS011;10367;52.202;5.996;2023-05-21T03:10:20;17.73;;;16.13;;
20415;SDS011;10367;52.202;5.996;2023-05-21T03:12:49;18.60;;;16.73;;
20415;SDS011;10367;52.202;5.996;2023-05-21T03:15:19;18.50;;;16.70;;
20415;SDS011;10367;52.202;5.996;2023-05-21T03:17:51;16.63;;;15.23;;
20415;SDS011;10367;52.202;5.996;2023-05-21T03:20:21;19.77;;;17.83;;
20415;SDS011;10367;52.202;5.996;2023-05-21T03:22:50;17.60;;;16.10;;
20415;SDS011;10367;52.202;5.996;2023-05-21T03:25:20;18.87;;;16.90;;
20415;SDS011;10367;52.202;5.996;2023-05-21T03:27:51;19.33;;;16.93;;
20415;SDS011;10367;52.202;5.996;2023-05-21T03:30:20;20.47;;;18.37;;
20415;SDS011;10367;52.202;5.996;2023-05-21T03:32:48;18.00;;;16.20;;
20415;SDS011;10367;52.202;5.996;2023-05-21T03:35:19;20.17;;;18.07;;
20415;SDS011;10367;52.202;5.996;2023-05-21T03:37:47;18.70;;;16.87;;
20415;SDS011;10367;52.202;5.996;2023-05-21T03:40:17;18.80;;;16.97;;
20415;SDS011;10367;52.202;5.996;2023-05-21T03:42:45;19.33;;;17.37;;
20415;SDS011;10367;52.202;5.996;2023-05-21T03:45:14;20.67;;;18.47;;
20415;SDS011;10367;52.202;5.996;2023-05-21T03:47:43;17.80;;;16.10;;
20415;SDS011;10367;52.202;5.996;2023-05-21T03:50:12;21.87;;;18.60;;
20415;SDS011;10367;52.202;5.996;2023-05-21T03:52:42;19.10;;;17.37;;
20415;SDS011;10367;52.202;5.996;2023-05-21T03:55:11;20.27;;;18.27;;
20415;SDS011;10367;52.202;5.996;2023-05-21T03:57:40;18.93;;;16.93;;
20415;SDS011;10367;52.202;5.996;2023-05-21T04:00:09;18.23;;;16.53;;
20415;SDS011;10367;52.202;5.996;2023-05-21T04:02:38;20.17;;;18.13;;
20415;SDS011;10367;52.202;5.996;2023-05-21T04:05:07;20.00;;;18.07;;
20415;SDS011;10367;52.202;5.996;2023-05-21T04:07:36;20.37;;;18.37;;
20415;SDS011;10367;52.202;5.996;2023-05-21T04:10:07;20.17;;;18.00;;
20415;SDS011;10367;52.202;5.996;2023-05-21T04:12:36;19.30;;;17.33;;
20415;SDS011;10367;52.202;5.996;2023-05-21T04:15:05;19.57;;;17.67;;
20415;SDS011;10367;52.202;5.996;2023-05-21T04:17:35;18.50;;;16.63;;
20415;SDS011;10367;52.202;5.996;2023-05-21T04:20:04;19.87;;;17.93;;
20415;SDS011;10367;52.202;5.996;2023-05-21T04:22:34;21.43;;;19.17;;
20415;SDS011;10367;52.202;5.996;2023-05-21T04:25:03;17.13;;;15.50;;
20415;SDS011;10367;52.202;5.996;2023-05-21T04:27:33;20.70;;;18.53;;
20415;SDS011;10367;52.202;5.996;2023-05-21T04:30:02;20.00;;;18.10;;
20415;SDS011;10367;52.202;5.996;2023-05-21T04:32:32;19.00;;;17.20;;
20415;SDS011;10367;52.202;5.996;2023-05-21T04:35:01;19.70;;;17.93;;
20415;SDS011;10367;52.202;5.996;2023-05-21T04:37:30;19.00;;;16.40;;
20415;SDS011;10367;52.202;5.996;2023-05-21T04:40:00;19.53;;;17.53;;
20415;SDS011;10367;52.202;5.996;2023-05-21T04:42:29;19.40;;;17.33;;
20415;SDS011;10367;52.202;5.996;2023-05-21T04:45:00;22.00;;;18.77;;
20415;SDS011;10367;52.202;5.996;2023-05-21T04:47:29;22.03;;;19.20;;
20415;SDS011;10367;52.202;5.996;2023-05-21T04:50:01;19.40;;;17.33;;
20415;SDS011;10367;52.202;5.996;2023-05-21T04:52:31;19.37;;;16.43;;
20415;SDS011;10367;52.202;5.996;2023-05-21T04:55:00;18.70;;;16.73;;
20415;SDS011;10367;52.202;5.996;2023-05-21T04:57:29;22.33;;;17.77;;
20415;SDS011;10367;52.202;5.996;2023-05-21T04:59:58;19.63;;;17.53;;
20415;SDS011;10367;52.202;5.996;2023-05-21T05:02:29;19.63;;;17.70;;
20415;SDS011;10367;52.202;5.996;2023-05-21T05:04:58;19.20;;;17.17;;
20415;SDS011;10367;52.202;5.996;2023-05-21T05:07:27;18.90;;;17.20;;
20415;SDS011;10367;52.202;5.996;2023-05-21T05:09:56;19.60;;;17.73;;
20415;SDS011;10367;52.202;5.996;2023-05-21T05:12:25;19.67;;;17.73;;
20415;SDS011;10367;52.202;5.996;2023-05-21T05:14:53;19.50;;;17.63;;
20415;SDS011;10367;52.202;5.996;2023-05-21T05:17:24;18.60;;;16.90;;
20415;SDS011;10367;52.202;5.996;2023-05-21T05:19:53;19.70;;;17.37;;
20415;SDS011;10367;52.202;5.996;2023-05-21T05:22:22;19.10;;;17.27;;
20415;SDS011;10367;52.202;5.996;2023-05-21T05:24:50;18.17;;;16.33;;
20415;SDS011;10367;52.202;5.996;2023-05-21T05:27:19;21.27;;;19.10;;
20415;SDS011;10367;52.202;5.996;2023-05-21T05:29:48;18.10;;;16.47;;
20415;SDS011;10367;52.202;5.996;2023-05-21T05:32:17;21.23;;;18.70;;
20415;SDS011;10367;52.202;5.996;2023-05-21T05:34:47;20.77;;;18.67;;
20415;SDS011;10367;52.202;5.996;2023-05-21T05:37:16;20.87;;;18.77;;
20415;SDS011;10367;52.202;5.996;2023-05-21T05:39:44;19.30;;;17.60;;
20415;SDS011;10367;52.202;5.996;2023-05-21T05:42:13;19.67;;;17.70;;
20415;SDS011;10367;52.202;5.996;2023-05-21T05:44:42;23.30;;;19.93;;
20415;SDS011;10367;52.202;5.996;2023-05-21T05:47:11;22.50;;;20.13;;
20415;SDS011;10367;52.202;5.996;2023-05-21T05:49:39;18.23;;;16.47;;
20415;SDS011;10367;52.202;5.996;2023-05-21T05:52:09;20.00;;;16.77;;
20415;SDS011;10367;52.202;5.996;2023-05-21T05:54:38;20.77;;;18.63;;
20415;SDS011;10367;52.202;5.996;2023-05-21T05:57:07;21.57;;;19.23;;
20415;SDS011;10367;52.202;5.996;2023-05-21T05:59:36;25.90;;;20.70;;
20415;SDS011;10367;52.202;5.996;2023-05-21T06:02:05;21.53;;;19.23;;
20415;SDS011;10367;52.202;5.996;2023-05-21T06:04:34;19.83;;;17.93;;
20415;SDS011;10367;52.202;5.996;2023-05-21T06:07:03;18.13;;;16.43;;
20415;SDS011;10367;52.202;5.996;2023-05-21T06:09:33;21.20;;;19.10;;
20415;SDS011;10367;52.202;5.996;2023-05-21T06:12:05;19.93;;;17.87;;
20415;SDS011;10367;52.202;5.996;2023-05-21T06:14:37;19.97;;;17.97;;
20415;SDS011;10367;52.202;5.996;2023-05-21T06:17:08;18.87;;;16.97;;
20415;SDS011;10367;52.202;5.996;2023-05-21T06:19:38;19.90;;;17.73;;
20415;SDS011;10367;52.202;5.996;2023-05-21T06:22:07;20.60;;;18.60;;
20415;SDS011;10367;52.202;5.996;2023-05-21T06:24:37;20.40;;;18.37;;
20415;SDS011;10367;52.202;5.996;2023-05-21T06:27:06;19.70;;;18.00;;
20415;SDS011;10367;52.202;5.996;2023-05-21T06:29:34;20.07;;;18.07;;
20415;SDS011;10367;52.202;5.996;2023-05-21T06:32:03;21.00;;;18.37;;
20415;SDS011;10367;52.202;5.996;2023-05-21T06:34:33;20.00;;;17.90;;
20415;SDS011;10367;52.202;5.996;2023-05-21T06:37:01;21.10;;;19.00;;
20415;SDS011;10367;52.202;5.996;2023-05-21T06:39:30;22.23;;;19.07;;
20415;SDS011;10367;52.202;5.996;2023-05-21T06:42:00;19.33;;;17.57;;
20415;SDS011;10367;52.202;5.996;2023-05-21T06:44:29;21.37;;;19.17;;
20415;SDS011;10367;52.202;5.996;2023-05-21T06:46:58;21.20;;;18.93;;
20415;SDS011;10367;52.202;5.996;2023-05-21T06:49:27;22.37;;;20.07;;
20415;SDS011;10367;52.202;5.996;2023-05-21T06:51:56;19.40;;;17.53;;
20415;SDS011;10367;52.202;5.996;2023-05-21T06:54:25;24.23;;;19.07;;
20415;SDS011;10367;52.202;5.996;2023-05-21T06:56:53;21.47;;;19.37;;
20415;SDS011;10367;52.202;5.996;2023-05-21T06:59:24;21.63;;;19.33;;
20415;SDS011;10367;52.202;5.996;2023-05-21T07:01:52;20.70;;;18.57;;
20415;SDS011;10367;52.202;5.996;2023-05-21T07:04:21;21.87;;;19.67;;
20415;SDS011;10367;52.202;5.996;2023-05-21T07:06:50;21.67;;;19.67;;
20415;SDS011;10367;52.202;5.996;2023-05-21T07:09:19;22.23;;;19.37;;
20415;SDS011;10367;52.202;5.996;2023-05-21T07:11:48;21.57;;;19.07;;
20415;SDS011;10367;52.202;5.996;2023-05-21T07:14:19;23.60;;;20.17;;
20415;SDS011;10367;52.202;5.996;2023-05-21T07:16:49;21.90;;;19.70;;
20415;SDS011;10367;52.202;5.996;2023-05-21T07:19:18;21.67;;;19.43;;
20415;SDS011;10367;52.202;5.996;2023-05-21T07:21:48;21.87;;;19.60;;
20415;SDS011;10367;52.202;5.996;2023-05-21T07:24:17;22.47;;;20.27;;
20415;SDS011;10367;52.202;5.996;2023-05-21T07:26:47;22.03;;;19.97;;
20415;SDS011;10367;52.202;5.996;2023-05-21T07:29:20;22.50;;;20.33;;
20415;SDS011;10367;52.202;5.996;2023-05-21T07:31:53;21.43;;;19.37;;
20415;SDS011;10367;52.202;5.996;2023-05-21T07:34:21;23.03;;;20.70;;
20415;SDS011;10367;52.202;5.996;2023-05-21T07:36:50;22.23;;;19.67;;
20415;SDS011;10367;52.202;5.996;2023-05-21T07:39:19;22.27;;;20.13;;
20415;SDS011;10367;52.202;5.996;2023-05-21T07:41:48;21.53;;;19.37;;
20415;SDS011;10367;52.202;5.996;2023-05-21T07:44:17;21.90;;;19.80;;
20415;SDS011;10367;52.202;5.996;2023-05-21T07:46:46;21.77;;;19.77;;
20415;SDS011;10367;52.202;5.996;2023-05-21T07:49:16;23.03;;;20.83;;
20415;SDS011;10367;52.202;5.996;2023-05-21T07:51:45;21.23;;;19.17;;
20415;SDS011;10367;52.202;5.996;2023-05-21T07:54:13;22.53;;;20.37;;
20415;SDS011;10367;52.202;5.996;2023-05-21T07:56:42;23.37;;;21.00;;
20415;SDS011;10367;52.202;5.996;2023-05-21T07:59:12;21.83;;;19.63;;
20415;SDS011;10367;52.202;5.996;2023-05-21T08:01:41;22.40;;;20.27;;
20415;SDS011;10367;52.202;5.996;2023-05-21T08:04:10;21.03;;;19.23;;
20415;SDS011;10367;52.202;5.996;2023-05-21T08:06:41;21.83;;;19.90;;
20415;SDS011;10367;52.202;5.996;2023-05-21T08:09:10;22.70;;;20.60;;
20415;SDS011;10367;52.202;5.996;2023-05-21T08:11:39;22.27;;;20.37;;
20415;SDS011;10367;52.202;5.996;2023-05-21T08:14:08;23.20;;;21.13;;
20415;SDS011;10367;52.202;5.996;2023-05-21T08:16:37;23.90;;;21.57;;
20415;SDS011;10367;52.202;5.996;2023-05-21T08:19:06;26.33;;;22.63;;
20415;SDS011;10367;52.202;5.996;2023-05-21T08:21:35;22.20;;;20.17;;
20415;SDS011;10367;52.202;5.996;2023-05-21T08:24:05;24.10;;;21.63;;
20415;SDS011;10367;52.202;5.996;2023-05-21T08:26:34;22.37;;;20.13;;
20415;SDS011;10367;52.202;5.996;2023-05-21T08:29:03;22.93;;;20.93;;
20415;SDS011;10367;52.202;5.996;2023-05-21T08:31:32;23.80;;;21.67;;
20415;SDS011;10367;52.202;5.996;2023-05-21T08:34:01;23.47;;;21.23;;
20415;SDS011;10367;52.202;5.996;2023-05-21T08:36:30;25.07;;;22.67;;
20415;SDS011;10367;52.202;5.996;2023-05-21T08:38:58;22.37;;;20.30;;
20415;SDS011;10367;52.202;5.996;2023-05-21T08:41:28;24.30;;;22.10;;
20415;SDS011;10367;52.202;5.996;2023-05-21T08:43:58;25.07;;;22.73;;
20415;SDS011;10367;52.202;5.996;2023-05-21T08:46:31;24.67;;;22.27;;
20415;SDS011;10367;52.202;5.996;2023-05-21T08:49:00;25.50;;;22.93;;
20415;SDS011;10367;52.202;5.996;2023-05-21T08:51:30;24.93;;;22.63;;
20415;SDS011;10367;52.202;5.996;2023-05-21T08:53:59;24.07;;;21.83;;
20415;SDS011;10367;52.202;5.996;2023-05-21T08:56:31;26.30;;;23.90;;
20415;SDS011;10367;52.202;5.996;2023-05-21T08:59:01;24.83;;;22.50;;
20415;SDS011;10367;52.202;5.996;2023-05-21T09:01:30;24.13;;;22.00;;
20415;SDS011;10367;52.202;5.996;2023-05-21T09:04:00;23.37;;;21.50;;
20415;SDS011;10367;52.202;5.996;2023-05-21T09:06:46;24.73;;;22.23;;
20415;SDS011;10367;52.202;5.996;2023-05-21T09:09:16;27.33;;;23.60;;
20415;SDS011;10367;52.202;5.996;2023-05-21T09:11:53;24.30;;;22.03;;
20415;SDS011;10367;52.202;5.996;2023-05-21T09:14:22;26.17;;;23.47;;
20415;SDS011;10367;52.202;5.996;2023-05-21T09:16:54;25.93;;;23.23;;
20415;SDS011;10367;52.202;5.996;2023-05-21T09:19:23;25.63;;;23.23;;
20415;SDS011;10367;52.202;5.996;2023-05-21T09:21:56;25.93;;;23.30;;
20415;SDS011;10367;52.202;5.996;2023-05-21T09:24:30;26.23;;;23.40;;
20415;SDS011;10367;52.202;5.996;2023-05-21T09:27:05;24.27;;;22.03;;
20415;SDS011;10367;52.202;5.996;2023-05-21T09:29:34;26.00;;;23.70;;
20415;SDS011;10367;52.202;5.996;2023-05-21T09:32:09;26.00;;;23.63;;
20415;SDS011;10367;52.202;5.996;2023-05-21T09:34:38;26.07;;;23.87;;
20415;SDS011;10367;52.202;5.996;2023-05-21T09:37:06;31.37;;;23.67;;
20415;SDS011;10367;52.202;5.996;2023-05-21T09:39:55;26.17;;;23.53;;
20415;SDS011;10367;52.202;5.996;2023-05-21T09:42:26;26.80;;;24.47;;
20415;SDS011;10367;52.202;5.996;2023-05-21T09:44:57;26.80;;;23.73;;
20415;SDS011;10367;52.202;5.996;2023-05-21T09:47:26;26.17;;;23.73;;
20415;SDS011;10367;52.202;5.996;2023-05-21T09:49:56;29.17;;;26.33;;
20415;SDS011;10367;52.202;5.996;2023-05-21T09:52:25;26.87;;;24.23;;
20415;SDS011;10367;52.202;5.996;2023-05-21T09:54:55;27.00;;;24.40;;
20415;SDS011;10367;52.202;5.996;2023-05-21T09:57:25;28.83;;;26.07;;
20415;SDS011;10367;52.202;5.996;2023-05-21T09:59:54;27.80;;;25.10;;
20415;SDS011;10367;52.202;5.996;2023-05-21T10:02:23;28.43;;;25.77;;
20415;SDS011;10367;52.202;5.996;2023-05-21T10:04:54;27.97;;;25.47;;
20415;SDS011;10367;52.202;5.996;2023-05-21T10:07:24;28.30;;;25.73;;
20415;SDS011;10367;52.202;5.996;2023-05-21T10:09:55;25.33;;;23.37;;
20415;SDS011;10367;52.202;5.996;2023-05-21T10:12:26;28.03;;;25.30;;
20415;SDS011;10367;52.202;5.996;2023-05-21T10:14:58;26.57;;;24.37;;
20415;SDS011;10367;52.202;5.996;2023-05-21T10:17:28;26.17;;;23.90;;
20415;SDS011;10367;52.202;5.996;2023-05-21T10:19:58;28.63;;;25.97;;
20415;SDS011;10367;52.202;5.996;2023-05-21T10:22:27;27.90;;;25.50;;
20415;SDS011;10367;52.202;5.996;2023-05-21T10:24:56;28.30;;;25.67;;
20415;SDS011;10367;52.202;5.996;2023-05-21T10:27:28;30.40;;;27.23;;
20415;SDS011;10367;52.202;5.996;2023-05-21T10:29:58;28.47;;;25.87;;
20415;SDS011;10367;52.202;5.996;2023-05-21T10:32:27;29.90;;;26.97;;
20415;SDS011;10367;52.202;5.996;2023-05-21T10:34:57;27.10;;;24.80;;
20415;SDS011;10367;52.202;5.996;2023-05-21T10:37:28;29.47;;;26.80;;
20415;SDS011;10367;52.202;5.996;2023-05-21T10:39:56;27.53;;;25.23;;
20415;SDS011;10367;52.202;5.996;2023-05-21T10:42:35;28.00;;;25.60;;
20415;SDS011;10367;52.202;5.996;2023-05-21T10:45:34;28.20;;;25.73;;
20415;SDS011;10367;52.202;5.996;2023-05-21T10:48:30;28.53;;;26.03;;
20415;SDS011;10367;52.202;5.996;2023-05-21T10:51:15;26.37;;;24.23;;
20415;SDS011;10367;52.202;5.996;2023-05-21T10:56:40;27.53;;;25.20;;
20415;SDS011;10367;52.202;5.996;2023-05-21T10:59:14;27.47;;;25.10;;
20415;SDS011;10367;52.202;5.996;2023-05-21T11:01:49;25.37;;;23.27;;
20415;SDS011;10367;52.202;5.996;2023-05-21T11:04:22;27.27;;;24.87;;
20415;SDS011;10367;52.202;5.996;2023-05-21T11:06:53;27.10;;;24.80;;
20415;SDS011;10367;52.202;5.996;2023-05-21T11:09:23;29.00;;;26.40;;
20415;SDS011;10367;52.202;5.996;2023-05-21T11:11:52;27.27;;;25.10;;
20415;SDS011;10367;52.202;5.996;2023-05-21T11:14:25;28.53;;;26.03;;
20415;SDS011;10367;52.202;5.996;2023-05-21T11:17:02;28.50;;;25.90;;
20415;SDS011;10367;52.202;5.996;2023-05-21T11:19:37;29.20;;;26.40;;
20415;SDS011;10367;52.202;5.996;2023-05-21T11:22:08;30.57;;;27.57;;
20415;SDS011;10367;52.202;5.996;2023-05-21T11:24:39;28.67;;;26.00;;
20415;SDS011;10367;52.202;5.996;2023-05-21T11:27:08;27.07;;;24.87;;
20415;SDS011;10367;52.202;5.996;2023-05-21T11:29:38;26.40;;;24.33;;
20415;SDS011;10367;52.202;5.996;2023-05-21T11:32:12;29.00;;;26.43;;
20415;SDS011;10367;52.202;5.996;2023-05-21T11:34:44;27.33;;;25.07;;
20415;SDS011;10367;52.202;5.996;2023-05-21T11:37:32;26.57;;;24.40;;
20415;SDS011;10367;52.202;5.996;2023-05-21T11:40:21;28.53;;;25.67;;
20415;SDS011;10367;52.202;5.996;2023-05-21T11:42:52;28.97;;;26.40;;
20415;SDS011;10367;52.202;5.996;2023-05-21T11:45:21;30.00;;;27.23;;
20415;SDS011;10367;52.202;5.996;2023-05-21T11:47:58;27.67;;;25.37;;
20415;SDS011;10367;52.202;5.996;2023-05-21T11:50:27;28.27;;;25.57;;
20415;SDS011;10367;52.202;5.996;2023-05-21T11:52:59;29.07;;;26.60;;
20415;SDS011;10367;52.202;5.996;2023-05-21T11:55:29;30.23;;;27.40;;
20415;SDS011;10367;52.202;5.996;2023-05-21T11:57:58;29.57;;;27.07;;
20415;SDS011;10367;52.202;5.996;2023-05-21T12:00:28;31.63;;;28.53;;
20415;SDS011;10367;52.202;5.996;2023-05-21T12:02:59;31.50;;;28.37;;
20415;SDS011;10367;52.202;5.996;2023-05-21T12:05:27;30.77;;;27.80;;
20415;SDS011;10367;52.202;5.996;2023-05-21T12:07:56;30.97;;;27.90;;
20415;SDS011;10367;52.202;5.996;2023-05-21T12:10:25;32.47;;;29.23;;
20415;SDS011;10367;52.202;5.996;2023-05-21T12:12:54;31.47;;;28.47;;
20415;SDS011;10367;52.202;5.996;2023-05-21T12:15:24;29.27;;;26.70;;
20415;SDS011;10367;52.202;5.996;2023-05-21T12:17:54;30.13;;;27.57;;
20415;SDS011;10367;52.202;5.996;2023-05-21T12:20:26;31.27;;;28.30;;
20415;SDS011;10367;52.202;5.996;2023-05-21T12:22:58;29.83;;;27.20;;
20415;SDS011;10367;52.202;5.996;2023-05-21T12:25:27;31.40;;;28.43;;
20415;SDS011;10367;52.202;5.996;2023-05-21T12:27:56;32.17;;;27.57;;
20415;SDS011;10367;52.202;5.996;2023-05-21T12:30:27;31.33;;;28.23;;
20415;SDS011;10367;52.202;5.996;2023-05-21T12:32:57;29.60;;;26.90;;
20415;SDS011;10367;52.202;5.996;2023-05-21T12:35:29;31.83;;;28.63;;
20415;SDS011;10367;52.202;5.996;2023-05-21T12:38:01;33.50;;;30.40;;
20415;SDS011;10367;52.202;5.996;2023-05-21T12:40:33;32.27;;;29.23;;
20415;SDS011;10367;52.202;5.996;2023-05-21T12:43:05;30.47;;;27.77;;
20415;SDS011;10367;52.202;5.996;2023-05-21T12:45:33;30.23;;;27.83;;
20415;SDS011;10367;52.202;5.996;2023-05-21T12:48:05;30.57;;;27.97;;
20415;SDS011;10367;52.202;5.996;2023-05-21T12:50:38;30.40;;;27.80;;
20415;SDS011;10367;52.202;5.996;2023-05-21T12:53:08;30.37;;;27.60;;
20415;SDS011;10367;52.202;5.996;2023-05-21T12:55:38;31.27;;;28.37;;
20415;SDS011;10367;52.202;5.996;2023-05-21T12:58:07;30.97;;;28.33;;
20415;SDS011;10367;52.202;5.996;2023-05-21T13:00:40;30.10;;;27.40;;
20415;SDS011;10367;52.202;5.996;2023-05-21T13:03:09;30.60;;;28.13;;
20415;SDS011;10367;52.202;5.996;2023-05-21T13:05:40;31.47;;;28.80;;
20415;SDS011;10367;52.202;5.996;2023-05-21T13:08:08;31.50;;;28.80;;
20415;SDS011;10367;52.202;5.996;2023-05-21T13:10:39;33.13;;;30.03;;
20415;SDS011;10367;52.202;5.996;2023-05-21T13:13:08;32.47;;;29.67;;
20415;SDS011;10367;52.202;5.996;2023-05-21T13:15:37;34.23;;;30.90;;
20415;SDS011;10367;52.202;5.996;2023-05-21T13:18:07;33.17;;;30.23;;
20415;SDS011;10367;52.202;5.996;2023-05-21T13:20:39;32.30;;;29.53;;
20415;SDS011;10367;52.202;5.996;2023-05-21T13:23:08;31.93;;;29.13;;
20415;SDS011;10367;52.202;5.996;2023-05-21T13:25:37;33.03;;;30.03;;
20415;SDS011;10367;52.202;5.996;2023-05-21T13:28:06;33.10;;;30.20;;
20415;SDS011;10367;52.202;5.996;2023-05-21T13:30:36;33.40;;;30.23;;
20415;SDS011;10367;52.202;5.996;2023-05-21T13:33:05;32.60;;;29.77;;
20415;SDS011;10367;52.202;5.996;2023-05-21T13:35:34;33.03;;;30.03;;
20415;SDS011;10367;52.202;5.996;2023-05-21T13:38:04;33.00;;;30.10;;
20415;SDS011;10367;52.202;5.996;2023-05-21T13:40:33;32.63;;;29.50;;
20415;SDS011;10367;52.202;5.996;2023-05-21T13:43:04;32.43;;;29.53;;
20415;SDS011;10367;52.202;5.996;2023-05-21T13:45:33;33.83;;;30.63;;
20415;SDS011;10367;52.202;5.996;2023-05-21T13:48:02;33.37;;;30.23;;
20415;SDS011;10367;52.202;5.996;2023-05-21T13:50:31;34.33;;;31.20;;
20415;SDS011;10367;52.202;5.996;2023-05-21T13:53:00;34.77;;;31.47;;
20415;SDS011;10367;52.202;5.996;2023-05-21T13:55:30;32.97;;;30.23;;
20415;SDS011;10367;52.202;5.996;2023-05-21T13:57:59;36.50;;;33.13;;
20415;SDS011;10367;52.202;5.996;2023-05-21T14:00:28;34.53;;;31.40;;
20415;SDS011;10367;52.202;5.996;2023-05-21T14:02:57;32.57;;;29.70;;
20415;SDS011;10367;52.202;5.996;2023-05-21T14:05:26;34.93;;;31.47;;
20415;SDS011;10367;52.202;5.996;2023-05-21T14:07:54;32.73;;;29.97;;
20415;SDS011;10367;52.202;5.996;2023-05-21T14:10:23;35.57;;;32.10;;
20415;SDS011;10367;52.202;5.996;2023-05-21T14:12:53;35.13;;;31.77;;
20415;SDS011;10367;52.202;5.996;2023-05-21T14:15:37;34.57;;;31.20;;
20415;SDS011;10367;52.202;5.996;2023-05-21T14:18:06;35.37;;;32.10;;
20415;SDS011;10367;52.202;5.996;2023-05-21T14:20:38;33.33;;;30.63;;
20415;SDS011;10367;52.202;5.996;2023-05-21T14:23:06;35.13;;;31.67;;
20415;SDS011;10367;52.202;5.996;2023-05-21T14:25:37;35.47;;;32.23;;
20415;SDS011;10367;52.202;5.996;2023-05-21T14:28:07;35.20;;;32.17;;
20415;SDS011;10367;52.202;5.996;2023-05-21T14:30:36;36.50;;;32.90;;
20415;SDS011;10367;52.202;5.996;2023-05-21T14:33:04;33.53;;;30.57;;
20415;SDS011;10367;52.202;5.996;2023-05-21T14:35:33;32.87;;;29.97;;
20415;SDS011;10367;52.202;5.996;2023-05-21T14:38:02;35.87;;;32.50;;
20415;SDS011;10367;52.202;5.996;2023-05-21T14:40:31;34.27;;;31.17;;